Time;durP1;ratioP1;P1;durP2;ratioP2;P2;SDS_P1;SDS_P2;PMS_P1;PMS_P2;Temp;Humidity;BMP_temperature;BMP_pressure;BME280_temperature;BME280_humidity;BME280_pressure;Samples;Min_cycle;Max_cycle;Signal;HPM_P1;HPM_P2
2022/03/07 00:02:08;;;;;;;18.87;12.77;;;;;;;;;;5014163;28;20465;-88
2022/03/07 00:04:34;;;;;;;18.00;13.87;;;;;;;;;;5013127;28;20465;-84
2022/03/07 00:07:00;;;;;;;24.37;15.63;;;;;;;;;;5014007;28;20882;-85
2022/03/07 00:09:26;;;;;;;22.80;14.47;;;;;;;;;;5014333;28;20451;-86
2022/03/07 00:11:52;;;;;;;21.97;13.27;;;;;;;;;;5014083;28;20909;-85
2022/03/07 00:14:18;;;;;;;21.57;15.00;;;;;;;;;;5005584;28;20453;-78
2022/03/07 00:16:44;;;;;;;15.43;13.40;;;;;;;;;;4996607;28;20914;-84
2022/03/07 00:19:10;;;;;;;16.60;12.73;;;;;;;;;;4994723;28;20456;-85
2022/03/07 00:21:36;;;;;;;19.57;14.23;;;;;;;;;;4994114;28;20476;-86
2022/03/07 00:24:03;;;;;;;18.90;13.03;;;;;;;;;;4993077;28;20557;-84
2022/03/07 00:26:29;;;;;;;19.00;12.30;;;;;;;;;;4994507;28;20500;-86
2022/03/07 00:28:58;;;;;;;14.53;11.87;;;;;;;;;;4994621;28;20519;-86
2022/03/07 00:31:24;;;;;;;18.30;13.60;;;;;;;;;;4994755;28;20570;-85
2022/03/07 00:33:52;;;;;;;17.67;12.80;;;;;;;;;;4994030;28;20413;-82
2022/03/07 00:36:21;;;;;;;15.43;11.70;;;;;;;;;;4992549;28;20431;-80
2022/03/07 00:38:50;;;;;;;16.27;11.23;;;;;;;;;;4993674;28;20922;-81
2022/03/07 00:41:16;;;;;;;14.13;11.47;;;;;;;;;;4992707;28;20955;-80
2022/03/07 00:43:42;;;;;;;19.67;12.20;;;;;;;;;;4994025;28;20495;-83
2022/03/07 00:46:08;;;;;;;12.93;10.83;;;;;;;;;;5001582;28;20416;-80
2022/03/07 00:48:34;;;;;;;14.70;11.87;;;;;;;;;;5016748;28;20491;-81
2022/03/07 00:51:00;;;;;;;16.93;11.47;;;;;;;;;;5019280;28;20403;-81
2022/03/07 00:53:27;;;;;;;13.63;10.77;;;;;;;;;;5019827;28;20422;-81
2022/03/07 00:55:54;;;;;;;17.60;12.37;;;;;;;;;;5022139;28;20407;-81
2022/03/07 00:58:22;;;;;;;14.10;11.23;;;;;;;;;;5017314;28;20496;-81
2022/03/07 01:00:49;;;;;;;12.83;11.10;;;;;;;;;;5013816;28;20406;-82
2022/03/07 01:03:15;;;;;;;16.60;11.50;;;;;;;;;;4996203;28;20537;-83
2022/03/07 01:05:43;;;;;;;14.40;12.10;;;;;;;;;;4995428;28;20902;-84
2022/03/07 01:08:09;;;;;;;17.07;11.60;;;;;;;;;;5012745;28;20405;-82
2022/03/07 01:10:36;;;;;;;15.60;11.27;;;;;;;;;;5012930;28;20495;-81
2022/03/07 01:13:05;;;;;;;16.33;13.23;;;;;;;;;;5012651;28;20404;-82
2022/03/07 01:15:31;;;;;;;19.17;12.53;;;;;;;;;;5011944;28;20424;-78
2022/03/07 01:17:59;;;;;;;17.93;12.93;;;;;;;;;;5013125;28;20421;-82
2022/03/07 01:20:25;;;;;;;15.90;12.10;;;;;;;;;;5013165;28;20403;-80
2022/03/07 01:22:51;;;;;;;15.63;11.97;;;;;;;;;;5012631;28;20503;-81
2022/03/07 01:25:17;;;;;;;15.63;11.27;;;;;;;;;;5013505;28;20405;-84
2022/03/07 01:27:43;;;;;;;13.87;11.10;;;;;;;;;;5012281;28;20457;-82
2022/03/07 01:30:09;;;;;;;17.93;13.00;;;;;;;;;;4994854;28;20419;-81
2022/03/07 01:32:35;;;;;;;19.73;12.10;;;;;;;;;;5012586;28;20913;-84
2022/03/07 01:35:01;;;;;;;20.97;13.30;;;;;;;;;;5012540;28;20448;-85
2022/03/07 01:37:27;;;;;;;15.43;11.33;;;;;;;;;;4994007;28;20966;-82
2022/03/07 01:39:53;;;;;;;15.40;11.03;;;;;;;;;;5012519;28;20503;-81
2022/03/07 01:42:19;;;;;;;14.47;11.60;;;;;;;;;;5012074;28;20825;-84
2022/03/07 01:44:45;;;;;;;20.70;11.57;;;;;;;;;;5012625;28;20420;-85
2022/03/07 01:47:14;;;;;;;16.27;12.40;;;;;;;;;;5012328;28;20427;-80
2022/03/07 01:49:40;;;;;;;18.63;13.27;;;;;;;;;;4994919;28;20903;-80
2022/03/07 01:52:06;;;;;;;14.90;10.27;;;;;;;;;;4993912;28;20435;-81
2022/03/07 01:54:32;;;;;;;16.70;11.07;;;;;;;;;;4994482;28;20472;-83
2022/03/07 01:56:58;;;;;;;15.80;11.73;;;;;;;;;;5012186;28;20422;-85
2022/03/07 01:59:26;;;;;;;16.07;12.50;;;;;;;;;;5012142;28;20835;-82
2022/03/07 02:01:53;;;;;;;15.47;10.77;;;;;;;;;;5012291;28;20473;-82
2022/03/07 02:04:20;;;;;;;18.90;10.80;;;;;;;;;;5011394;28;20434;-83
2022/03/07 02:06:49;;;;;;;19.30;11.57;;;;;;;;;;5011164;28;20417;-84
2022/03/07 02:09:16;;;;;;;19.50;12.93;;;;;;;;;;5011402;28;20428;-83
2022/03/07 02:11:42;;;;;;;16.07;11.57;;;;;;;;;;5011391;28;20463;-82
2022/03/07 02:14:16;;;;;;;20.10;13.97;;;;;;;;;;5011719;28;20411;-84
2022/03/07 02:16:42;;;;;;;16.20;11.70;;;;;;;;;;4994124;28;20424;-80
2022/03/07 02:19:08;;;;;;;15.43;10.83;;;;;;;;;;5012117;28;20416;-79
2022/03/07 02:21:34;;;;;;;13.10;10.07;;;;;;;;;;5011961;28;20458;-81
2022/03/07 02:24:01;;;;;;;14.50;11.20;;;;;;;;;;5011899;28;20522;-82
2022/03/07 02:26:27;;;;;;;16.10;12.20;;;;;;;;;;5012366;28;20801;-85
2022/03/07 02:28:53;;;;;;;12.87;11.60;;;;;;;;;;5015342;28;20582;-86
2022/03/07 02:31:20;;;;;;;20.10;14.23;;;;;;;;;;5015206;28;20438;-82
2022/03/07 02:33:46;;;;;;;16.63;13.10;;;;;;;;;;5015891;28;20419;-85
2022/03/07 02:36:12;;;;;;;16.90;11.50;;;;;;;;;;5015782;28;20403;-84
2022/03/07 02:38:38;;;;;;;15.77;12.50;;;;;;;;;;5015271;28;20927;-84
2022/03/07 02:41:04;;;;;;;14.43;11.00;;;;;;;;;;4997988;28;20429;-82
2022/03/07 02:43:30;;;;;;;17.07;12.57;;;;;;;;;;4998007;28;20802;-83
2022/03/07 02:45:58;;;;;;;16.50;12.47;;;;;;;;;;5015430;28;20493;-85
2022/03/07 02:48:24;;;;;;;19.37;12.90;;;;;;;;;;5016217;28;20425;-81
2022/03/07 02:50:50;;;;;;;19.90;13.07;;;;;;;;;;5014758;28;20419;-85
2022/03/07 02:53:16;;;;;;;17.03;12.27;;;;;;;;;;5015527;28;20408;-85
2022/03/07 02:55:42;;;;;;;15.03;10.90;;;;;;;;;;5015144;28;20443;-85
2022/03/07 02:58:08;;;;;;;13.43;11.30;;;;;;;;;;4997783;28;20501;-84
2022/03/07 03:00:34;;;;;;;17.27;12.20;;;;;;;;;;5015968;28;20414;-86
2022/03/07 03:03:00;;;;;;;13.70;10.23;;;;;;;;;;5015336;28;20495;-85
2022/03/07 03:05:26;;;;;;;15.50;12.40;;;;;;;;;;5015574;28;20957;-85
2022/03/07 03:07:55;;;;;;;15.30;11.40;;;;;;;;;;5014764;28;20473;-87
2022/03/07 03:10:21;;;;;;;18.43;11.70;;;;;;;;;;5015569;28;20454;-86
2022/03/07 03:12:47;;;;;;;13.20;11.77;;;;;;;;;;5015103;28;20455;-83
2022/03/07 03:15:14;;;;;;;13.73;9.83;;;;;;;;;;5015234;28;20420;-86
2022/03/07 03:17:41;;;;;;;17.43;11.90;;;;;;;;;;5015207;28;20520;-83
2022/03/07 03:20:08;;;;;;;17.57;11.90;;;;;;;;;;5014917;28;20439;-84
2022/03/07 03:22:34;;;;;;;19.23;13.00;;;;;;;;;;5014707;28;20555;-84
2022/03/07 03:25:00;;;;;;;14.50;12.10;;;;;;;;;;5014552;28;20466;-84
2022/03/07 03:27:25;;;;;;;13.80;12.30;;;;;;;;;;5014152;28;20914;-84
2022/03/07 03:29:51;;;;;;;13.33;11.37;;;;;;;;;;5014721;28;20411;-84
2022/03/07 03:32:17;;;;;;;22.50;13.27;;;;;;;;;;5014743;28;21003;-84
2022/03/07 03:34:43;;;;;;;14.33;12.23;;;;;;;;;;5014893;28;20468;-84
2022/03/07 03:37:09;;;;;;;16.07;11.53;;;;;;;;;;5015436;28;20457;-84
2022/03/07 03:39:35;;;;;;;18.17;12.03;;;;;;;;;;4996524;28;20529;-85
2022/03/07 03:42:01;;;;;;;16.40;10.40;;;;;;;;;;5014053;28;20490;-85
2022/03/07 03:44:27;;;;;;;16.23;11.70;;;;;;;;;;5014129;28;20432;-84
2022/03/07 03:46:53;;;;;;;22.67;12.47;;;;;;;;;;4996401;28;20482;-84
2022/03/07 03:49:19;;;;;;;15.43;10.33;;;;;;;;;;5014158;28;20438;-83
2022/03/07 03:51:45;;;;;;;14.60;11.50;;;;;;;;;;5013573;28;20485;-84
2022/03/07 03:54:10;;;;;;;17.00;10.27;;;;;;;;;;5013905;28;20421;-84
2022/03/07 03:56:37;;;;;;;14.43;11.03;;;;;;;;;;5013841;28;20419;-85
2022/03/07 03:59:03;;;;;;;15.90;11.63;;;;;;;;;;5014104;28;20421;-83
2022/03/07 04:01:28;;;;;;;15.70;11.93;;;;;;;;;;5013905;28;20942;-83
2022/03/07 04:03:54;;;;;;;13.70;10.23;;;;;;;;;;5013922;28;20503;-86
2022/03/07 04:06:20;;;;;;;18.70;10.77;;;;;;;;;;5013623;28;20415;-86
2022/03/07 04:08:49;;;;;;;17.83;11.50;;;;;;;;;;4996428;28;20427;-86
2022/03/07 04:11:15;;;;;;;15.00;10.23;;;;;;;;;;4996242;28;20461;-85
2022/03/07 04:13:41;;;;;;;14.17;10.67;;;;;;;;;;5013617;28;20880;-85
2022/03/07 04:16:07;;;;;;;16.57;10.60;;;;;;;;;;4995989;28;20420;-85
2022/03/07 04:18:33;;;;;;;16.73;11.30;;;;;;;;;;4996187;28;20824;-85
2022/03/07 04:20:59;;;;;;;16.63;10.77;;;;;;;;;;5013362;28;20407;-85
2022/03/07 04:23:25;;;;;;;21.03;12.10;;;;;;;;;;5013486;28;20517;-85
2022/03/07 04:25:51;;;;;;;16.27;11.50;;;;;;;;;;5013452;28;20406;-85
2022/03/07 04:28:17;;;;;;;12.67;11.00;;;;;;;;;;4995738;28;20477;-84
2022/03/07 04:30:43;;;;;;;15.63;11.40;;;;;;;;;;4995978;28;20424;-84
2022/03/07 04:33:11;;;;;;;16.13;12.83;;;;;;;;;;4995634;28;20421;-83
2022/03/07 04:35:37;;;;;;;19.47;13.13;;;;;;;;;;5013184;28;20474;-84
2022/03/07 04:38:03;;;;;;;21.70;14.80;;;;;;;;;;5013166;28;20831;-84
2022/03/07 04:40:29;;;;;;;21.80;13.30;;;;;;;;;;5013194;28;20408;-84
2022/03/07 04:42:58;;;;;;;14.83;10.60;;;;;;;;;;4995260;28;20514;-85
2022/03/07 04:45:25;;;;;;;18.87;12.73;;;;;;;;;;5013477;28;20398;-85
2022/03/07 04:47:50;;;;;;;21.83;12.10;;;;;;;;;;5013034;28;20416;-84
2022/03/07 04:50:16;;;;;;;19.03;11.97;;;;;;;;;;5012687;28;20418;-85
2022/03/07 04:52:43;;;;;;;20.20;11.90;;;;;;;;;;5013209;28;20940;-84
2022/03/07 04:55:09;;;;;;;20.27;11.90;;;;;;;;;;5013426;28;20907;-85
2022/03/07 04:57:36;;;;;;;16.13;11.67;;;;;;;;;;4995884;28;20426;-85
2022/03/07 05:00:03;;;;;;;16.53;11.00;;;;;;;;;;4995490;28;21122;-86
2022/03/07 05:02:29;;;;;;;23.70;12.73;;;;;;;;;;5016483;28;20482;-84
2022/03/07 05:04:58;;;;;;;19.77;11.73;;;;;;;;;;5016394;28;20415;-82
2022/03/07 05:07:24;;;;;;;15.70;11.00;;;;;;;;;;4995136;28;20435;-84
2022/03/07 05:09:50;;;;;;;15.77;11.57;;;;;;;;;;5013139;28;20762;-82
2022/03/07 05:12:16;;;;;;;19.93;10.80;;;;;;;;;;4995147;28;20432;-84
2022/03/07 05:14:45;;;;;;;19.67;11.37;;;;;;;;;;5012702;28;20512;-83
2022/03/07 05:17:11;;;;;;;20.30;12.83;;;;;;;;;;5013032;28;20421;-85
2022/03/07 05:19:37;;;;;;;14.77;11.33;;;;;;;;;;5012923;28;20415;-81
2022/03/07 05:22:03;;;;;;;18.97;12.73;;;;;;;;;;4994298;28;20471;-85
2022/03/07 05:24:29;;;;;;;24.70;11.67;;;;;;;;;;4994778;28;20420;-86
2022/03/07 05:26:55;;;;;;;17.57;11.10;;;;;;;;;;4994428;28;20431;-83
2022/03/07 05:29:21;;;;;;;18.70;12.40;;;;;;;;;;5012466;28;20451;-86
2022/03/07 05:31:47;;;;;;;21.77;12.13;;;;;;;;;;4994993;28;20511;-85
2022/03/07 05:34:13;;;;;;;17.33;10.20;;;;;;;;;;5012558;28;20895;-84
2022/03/07 05:36:38;;;;;;;30.30;10.80;;;;;;;;;;4994984;28;20790;-84
2022/03/07 05:39:04;;;;;;;18.03;12.20;;;;;;;;;;4995773;28;20950;-86
2022/03/07 05:41:30;;;;;;;25.20;13.70;;;;;;;;;;5012890;28;20449;-86
2022/03/07 05:43:56;;;;;;;18.33;11.70;;;;;;;;;;5013217;28;20433;-85
2022/03/07 05:46:22;;;;;;;18.00;11.20;;;;;;;;;;5013129;28;20767;-86
2022/03/07 05:48:49;;;;;;;16.50;10.53;;;;;;;;;;4994907;28;20421;-86
2022/03/07 05:51:21;;;;;;;17.37;10.70;;;;;;;;;;5013296;28;20422;-87
2022/03/07 05:53:46;;;;;;;16.07;10.77;;;;;;;;;;5016678;28;20409;-85
2022/03/07 05:56:12;;;;;;;21.10;11.10;;;;;;;;;;4994987;28;20503;-84
2022/03/07 05:58:38;;;;;;;21.00;11.10;;;;;;;;;;5012621;28;20825;-84
2022/03/07 06:01:07;;;;;;;18.57;11.43;;;;;;;;;;5012722;28;20899;-86
2022/03/07 06:03:33;;;;;;;16.43;10.63;;;;;;;;;;5016718;28;20430;-86
2022/03/07 06:05:59;;;;;;;20.03;13.37;;;;;;;;;;5015738;28;20409;-86
2022/03/07 06:08:25;;;;;;;26.97;12.90;;;;;;;;;;5016306;28;20461;-83
2022/03/07 06:10:51;;;;;;;20.33;11.07;;;;;;;;;;5016344;28;20450;-86
2022/03/07 06:13:17;;;;;;;18.30;11.70;;;;;;;;;;5016109;28;20519;-86
2022/03/07 06:15:43;;;;;;;27.57;13.63;;;;;;;;;;5016399;28;20408;-85
2022/03/07 06:18:11;;;;;;;34.23;14.80;;;;;;;;;;5016456;28;20464;-82
2022/03/07 06:20:37;;;;;;;28.50;14.40;;;;;;;;;;4998182;28;20430;-84
2022/03/07 06:23:04;;;;;;;18.97;13.50;;;;;;;;;;5015831;28;20476;-85
2022/03/07 06:25:30;;;;;;;20.23;13.13;;;;;;;;;;4989156;28;20417;-81
2022/03/07 06:27:56;;;;;;;18.53;12.90;;;;;;;;;;4997585;28;20476;-84
2022/03/07 06:30:22;;;;;;;23.63;14.93;;;;;;;;;;5016212;28;20826;-84
2022/03/07 06:32:48;;;;;;;25.60;15.40;;;;;;;;;;4997651;28;20470;-81
2022/03/07 06:35:14;;;;;;;22.60;14.30;;;;;;;;;;4997651;28;20414;-81
2022/03/07 06:37:47;;;;;;;21.40;13.80;;;;;;;;;;5016252;28;20420;-85
2022/03/07 06:40:13;;;;;;;20.87;13.37;;;;;;;;;;4998237;28;20849;-81
2022/03/07 06:42:39;;;;;;;23.40;14.30;;;;;;;;;;5015753;28;20506;-88
2022/03/07 06:45:06;;;;;;;20.60;13.93;;;;;;;;;;4998447;28;20826;-82
2022/03/07 06:47:32;;;;;;;27.07;15.70;;;;;;;;;;5016174;28;20420;-82
2022/03/07 06:49:58;;;;;;;18.50;12.00;;;;;;;;;;5015954;28;20414;-79
2022/03/07 06:52:28;;;;;;;20.70;12.93;;;;;;;;;;4998825;28;20432;-87
2022/03/07 06:54:57;;;;;;;17.77;12.53;;;;;;;;;;5016665;28;20449;-83
2022/03/07 06:57:23;;;;;;;21.20;15.10;;;;;;;;;;5016400;28;20411;-88
2022/03/07 06:59:50;;;;;;;25.40;14.93;;;;;;;;;;4998910;28;20507;-85
2022/03/07 07:02:17;;;;;;;18.97;13.37;;;;;;;;;;5015798;28;20471;-85
2022/03/07 07:04:51;;;;;;;24.10;14.50;;;;;;;;;;5015743;28;20420;-87
2022/03/07 07:07:18;;;;;;;26.43;15.37;;;;;;;;;;5015590;28;20411;-80
2022/03/07 07:09:46;;;;;;;19.73;14.30;;;;;;;;;;5016158;28;20465;-88
2022/03/07 07:12:12;;;;;;;23.43;15.27;;;;;;;;;;5014651;28;21024;-86
2022/03/07 07:14:38;;;;;;;25.43;15.07;;;;;;;;;;5015515;28;20414;-85
2022/03/07 07:17:07;;;;;;;22.80;13.20;;;;;;;;;;5014771;28;20420;-83
2022/03/07 07:19:33;;;;;;;22.67;14.23;;;;;;;;;;5015378;28;20410;-86
2022/03/07 07:21:59;;;;;;;21.03;13.77;;;;;;;;;;5015719;28;20807;-83
2022/03/07 07:24:25;;;;;;;20.43;13.00;;;;;;;;;;5016330;28;20414;-85
2022/03/07 07:26:51;;;;;;;20.50;12.60;;;;;;;;;;5022337;28;20468;-79
2022/03/07 07:29:20;;;;;;;20.40;12.30;;;;;;;;;;5011861;28;20472;-87
2022/03/07 07:31:47;;;;;;;19.80;13.10;;;;;;;;;;4997056;28;20425;-86
2022/03/07 07:34:13;;;;;;;22.57;14.13;;;;;;;;;;4983769;28;20419;-83
2022/03/07 07:36:42;;;;;;;19.60;14.23;;;;;;;;;;4997735;28;20409;-88
2022/03/07 07:39:08;;;;;;;24.03;14.17;;;;;;;;;;4996469;28;20487;-87
2022/03/07 07:41:34;;;;;;;20.20;14.10;;;;;;;;;;5003872;28;20861;-86
2022/03/07 07:44:00;;;;;;;18.50;13.07;;;;;;;;;;4997460;28;20439;-85
2022/03/07 07:46:26;;;;;;;22.83;14.30;;;;;;;;;;5016858;28;20425;-86
2022/03/07 07:48:52;;;;;;;20.73;14.17;;;;;;;;;;5017322;28;20502;-83
2022/03/07 07:51:18;;;;;;;17.90;14.07;;;;;;;;;;5016424;28;20420;-86
2022/03/07 07:53:49;;;;;;;17.83;13.50;;;;;;;;;;5016855;28;20496;-86
2022/03/07 07:56:15;;;;;;;18.80;12.40;;;;;;;;;;5017045;28;20410;-81
2022/03/07 07:58:41;;;;;;;17.50;13.27;;;;;;;;;;5016940;28;20406;-87
2022/03/07 08:01:10;;;;;;;22.20;15.93;;;;;;;;;;5017251;28;20420;-86
2022/03/07 08:03:36;;;;;;;18.60;14.50;;;;;;;;;;4998278;28;20491;-86
2022/03/07 08:06:02;;;;;;;17.20;13.30;;;;;;;;;;5016308;28;20479;-84
2022/03/07 08:08:28;;;;;;;18.50;13.90;;;;;;;;;;5016084;28;20516;-85
2022/03/07 08:10:55;;;;;;;16.00;13.27;;;;;;;;;;5016315;28;20409;-81
2022/03/07 08:13:21;;;;;;;19.43;14.03;;;;;;;;;;5016747;28;20757;-80
2022/03/07 08:15:47;;;;;;;19.07;14.50;;;;;;;;;;5016237;28;20506;-84
2022/03/07 08:18:13;;;;;;;18.30;13.47;;;;;;;;;;4998131;28;20412;-78
2022/03/07 08:20:39;;;;;;;17.60;13.20;;;;;;;;;;5014294;28;20764;-83
2022/03/07 08:23:05;;;;;;;17.23;13.00;;;;;;;;;;5014886;28;20472;-80
2022/03/07 08:25:32;;;;;;;15.00;12.10;;;;;;;;;;5013782;28;20425;-80
2022/03/07 08:27:59;;;;;;;15.20;12.70;;;;;;;;;;4996612;28;20473;-84
2022/03/07 08:30:26;;;;;;;13.37;12.07;;;;;;;;;;5014492;28;20428;-79
2022/03/07 08:32:53;;;;;;;18.03;13.93;;;;;;;;;;5014553;28;20422;-83
2022/03/07 08:35:20;;;;;;;16.27;14.00;;;;;;;;;;5013946;28;20410;-82
2022/03/07 08:37:47;;;;;;;13.30;12.07;;;;;;;;;;5014594;28;21184;-81
2022/03/07 08:40:15;;;;;;;15.83;13.00;;;;;;;;;;5014175;28;20521;-83
2022/03/07 08:42:41;;;;;;;13.90;12.17;;;;;;;;;;4996181;28;20908;-80
2022/03/07 08:45:07;;;;;;;15.73;12.67;;;;;;;;;;4996192;28;20917;-80
2022/03/07 08:47:34;;;;;;;14.40;13.00;;;;;;;;;;5014086;28;20441;-84
2022/03/07 08:50:00;;;;;;;14.77;13.00;;;;;;;;;;5013467;28;20416;-80
2022/03/07 08:52:26;;;;;;;14.93;12.37;;;;;;;;;;5013660;28;20417;-79
2022/03/07 08:54:52;;;;;;;13.83;12.43;;;;;;;;;;5013730;28;20766;-84
2022/03/07 08:57:18;;;;;;;13.83;11.80;;;;;;;;;;5014161;28;20184;-85
2022/03/07 08:59:44;;;;;;;12.90;10.17;;;;;;;;;;4996334;28;20423;-81
2022/03/07 09:02:10;;;;;;;11.80;10.70;;;;;;;;;;5013605;28;20219;-80
2022/03/07 09:04:37;;;;;;;12.33;11.00;;;;;;;;;;5013805;28;20426;-84
2022/03/07 09:07:03;;;;;;;11.80;10.60;;;;;;;;;;5013343;28;20406;-85
2022/03/07 09:09:29;;;;;;;10.30;9.07;;;;;;;;;;5013740;28;20468;-85
2022/03/07 09:11:55;;;;;;;10.87;9.20;;;;;;;;;;5013754;28;20414;-84
2022/03/07 09:14:21;;;;;;;11.93;10.17;;;;;;;;;;5013718;28;20501;-85
2022/03/07 09:16:56;;;;;;;12.03;10.90;;;;;;;;;;5013622;28;20438;-85
2022/03/07 09:19:22;;;;;;;11.60;10.40;;;;;;;;;;5013760;28;20409;-83
2022/03/07 09:21:49;;;;;;;11.90;10.80;;;;;;;;;;5013045;28;20560;-85
2022/03/07 09:24:15;;;;;;;10.90;9.03;;;;;;;;;;5013254;28;20472;-83
2022/03/07 09:26:41;;;;;;;11.90;9.93;;;;;;;;;;5013299;28;20792;-83
2022/03/07 09:29:07;;;;;;;9.50;8.47;;;;;;;;;;5013447;28;20468;-83
2022/03/07 09:31:33;;;;;;;13.30;10.27;;;;;;;;;;5013401;28;20418;-84
2022/03/07 09:33:59;;;;;;;9.87;8.97;;;;;;;;;;5013407;28;20412;-84
2022/03/07 09:36:25;;;;;;;10.20;9.30;;;;;;;;;;4995076;28;20791;-80
2022/03/07 09:38:51;;;;;;;9.43;8.63;;;;;;;;;;5013194;28;20236;-86
2022/03/07 09:41:20;;;;;;;7.33;6.07;;;;;;;;;;5013024;28;20177;-82
2022/03/07 09:43:46;;;;;;;8.33;7.57;;;;;;;;;;5013078;28;20933;-84
2022/03/07 09:46:14;;;;;;;6.93;6.30;;;;;;;;;;4995576;28;20414;-85
2022/03/07 09:48:40;;;;;;;6.90;6.30;;;;;;;;;;5013002;28;20545;-81
2022/03/07 09:51:07;;;;;;;6.57;5.97;;;;;;;;;;4995298;28;20417;-82
2022/03/07 09:53:33;;;;;;;8.80;6.50;;;;;;;;;;5013111;28;20848;-85
2022/03/07 09:55:59;;;;;;;7.03;6.27;;;;;;;;;;5013449;28;20418;-82
2022/03/07 09:58:25;;;;;;;7.83;6.00;;;;;;;;;;5013158;28;20902;-80
2022/03/07 10:00:51;;;;;;;8.27;5.77;;;;;;;;;;5013078;28;20414;-83
2022/03/07 10:03:20;;;;;;;7.03;4.83;;;;;;;;;;5012967;28;20976;-83
2022/03/07 10:05:46;;;;;;;5.30;4.80;;;;;;;;;;5012622;28;20175;-85
2022/03/07 10:08:21;;;;;;;6.33;5.70;;;;;;;;;;5012974;28;20418;-84
2022/03/07 10:10:50;;;;;;;5.37;4.87;;;;;;;;;;5012986;28;20441;-85
2022/03/07 10:13:16;;;;;;;5.60;4.20;;;;;;;;;;5013167;28;20421;-84
2022/03/07 10:15:42;;;;;;;8.00;5.70;;;;;;;;;;5012936;28;20440;-85
2022/03/07 10:18:15;;;;;;;5.00;3.97;;;;;;;;;;5012890;28;20182;-81
2022/03/07 10:20:52;;;;;;;5.70;4.83;;;;;;;;;;5012670;28;20402;-84
2022/03/07 10:23:18;;;;;;;4.47;3.50;;;;;;;;;;5012662;28;20496;-85
2022/03/07 10:25:44;;;;;;;4.67;3.77;;;;;;;;;;5012589;28;20731;-82
2022/03/07 10:28:10;;;;;;;3.47;3.17;;;;;;;;;;5012073;28;20286;-82
2022/03/07 10:30:37;;;;;;;5.50;3.33;;;;;;;;;;4994919;28;20430;-85
2022/03/07 10:33:07;;;;;;;3.27;3.00;;;;;;;;;;5012513;28;20414;-85
2022/03/07 10:35:34;;;;;;;4.90;3.80;;;;;;;;;;5012526;28;20424;-85
2022/03/07 10:38:04;;;;;;;5.87;2.43;;;;;;;;;;5012343;28;20414;-84
2022/03/07 10:40:31;;;;;;;3.07;2.17;;;;;;;;;;5012203;28;20413;-84
2022/03/07 10:43:00;;;;;;;3.23;2.20;;;;;;;;;;5012536;28;21041;-87
2022/03/07 10:45:26;;;;;;;3.33;2.60;;;;;;;;;;5012597;28;20406;-87
2022/03/07 10:47:54;;;;;;;2.10;1.90;;;;;;;;;;4996799;28;20483;-87
2022/03/07 10:50:21;;;;;;;3.40;1.63;;;;;;;;;;4998418;28;20472;-84
2022/03/07 10:52:47;;;;;;;1.73;1.27;;;;;;;;;;5016563;28;20870;-88
2022/03/07 10:55:13;;;;;;;2.60;1.77;;;;;;;;;;5016101;28;20421;-86
2022/03/07 10:57:43;;;;;;;2.43;1.57;;;;;;;;;;5016145;28;20219;-85
2022/03/07 11:00:10;;;;;;;2.27;1.87;;;;;;;;;;5016202;28;20434;-85
2022/03/07 11:02:40;;;;;;;1.40;1.30;;;;;;;;;;5015800;28;20484;-85
2022/03/07 11:05:07;;;;;;;2.00;1.20;;;;;;;;;;5015695;28;20409;-85
2022/03/07 11:07:36;;;;;;;4.03;1.33;;;;;;;;;;5015943;28;20424;-85
2022/03/07 11:10:02;;;;;;;2.60;1.53;;;;;;;;;;5015797;28;20414;-85
2022/03/07 11:12:31;;;;;;;1.30;1.10;;;;;;;;;;5015848;28;20421;-85
2022/03/07 11:14:58;;;;;;;1.77;1.67;;;;;;;;;;5015841;28;20410;-85
2022/03/07 11:17:25;;;;;;;0.93;0.67;;;;;;;;;;5018605;28;21046;-86
2022/03/07 11:19:56;;;;;;;1.53;0.93;;;;;;;;;;5017214;28;20773;-88
2022/03/07 11:22:26;;;;;;;1.90;1.03;;;;;;;;;;5000106;28;20493;-86
2022/03/07 11:24:53;;;;;;;1.27;1.17;;;;;;;;;;4999815;28;20465;-86
2022/03/07 11:27:19;;;;;;;1.30;0.97;;;;;;;;;;4999738;28;20450;-87
2022/03/07 11:29:45;;;;;;;6.40;1.03;;;;;;;;;;5016973;28;20434;-86
2022/03/07 11:32:14;;;;;;;1.40;0.73;;;;;;;;;;4999621;28;20414;-87
2022/03/07 11:34:51;;;;;;;2.13;1.10;;;;;;;;;;4996511;28;20814;-93
2022/03/07 11:37:21;;;;;;;2.50;1.07;;;;;;;;;;5002830;28;20415;-92
2022/03/07 11:39:47;;;;;;;2.17;1.10;;;;;;;;;;5000842;28;20411;-87
2022/03/07 11:42:15;;;;;;;1.50;0.70;;;;;;;;;;4998769;28;20466;-89
2022/03/07 11:44:42;;;;;;;1.67;1.00;;;;;;;;;;4998991;28;20415;-87
2022/03/07 11:47:12;;;;;;;1.40;0.93;;;;;;;;;;4980606;28;20946;-88
2022/03/07 11:49:39;;;;;;;1.27;0.80;;;;;;;;;;4996606;28;20474;-89
2022/03/07 11:52:07;;;;;;;1.03;0.87;;;;;;;;;;4979439;28;20419;-87
2022/03/07 11:54:34;;;;;;;1.00;0.60;;;;;;;;;;4996627;28;20437;-87
2022/03/07 11:57:07;;;;;;;3.50;0.83;;;;;;;;;;4996277;28;20946;-89
2022/03/07 11:59:33;;;;;;;2.20;0.97;;;;;;;;;;4979614;28;20498;-88
2022/03/07 12:01:59;;;;;;;1.57;0.93;;;;;;;;;;5001216;28;20447;-90
2022/03/07 12:04:25;;;;;;;0.80;0.50;;;;;;;;;;4994264;28;20770;-86
2022/03/07 12:06:52;;;;;;;1.10;0.50;;;;;;;;;;4994607;28;20403;-86
2022/03/07 12:09:26;;;;;;;0.93;0.60;;;;;;;;;;4994740;28;20446;-85
2022/03/07 12:12:06;;;;;;;1.40;1.07;;;;;;;;;;4994620;28;20422;-86
2022/03/07 12:14:33;;;;;;;1.03;0.70;;;;;;;;;;4994553;28;20419;-85
2022/03/07 12:17:01;;;;;;;1.17;0.90;;;;;;;;;;4977060;28;20429;-86
2022/03/07 12:19:27;;;;;;;1.43;0.77;;;;;;;;;;4994175;28;20415;-84
2022/03/07 12:21:54;;;;;;;2.73;1.10;;;;;;;;;;4994385;28;20600;-86
2022/03/07 12:24:21;;;;;;;2.00;1.00;;;;;;;;;;4978244;28;20902;-86
2022/03/07 12:26:48;;;;;;;2.57;1.07;;;;;;;;;;4995472;28;20774;-86
2022/03/07 12:29:15;;;;;;;2.43;0.80;;;;;;;;;;4995333;28;20454;-85
2022/03/07 12:31:48;;;;;;;1.73;0.93;;;;;;;;;;4995239;28;20415;-86
2022/03/07 12:34:14;;;;;;;1.17;0.80;;;;;;;;;;4995345;28;20776;-86
2022/03/07 12:36:40;;;;;;;4.50;1.10;;;;;;;;;;4997558;28;20473;-85
2022/03/07 12:39:06;;;;;;;2.97;1.03;;;;;;;;;;4996152;28;20865;-85
2022/03/07 12:41:34;;;;;;;1.10;1.00;;;;;;;;;;5008080;28;20445;-84
2022/03/07 12:44:00;;;;;;;2.27;1.07;;;;;;;;;;5003776;28;20434;-85
2022/03/07 12:46:27;;;;;;;1.40;1.17;;;;;;;;;;4984865;28;20410;-85
2022/03/07 12:48:54;;;;;;;1.43;0.70;;;;;;;;;;5003868;28;20504;-85
2022/03/07 12:51:21;;;;;;;0.97;0.63;;;;;;;;;;4984540;28;20407;-85
2022/03/07 12:53:52;;;;;;;1.57;1.10;;;;;;;;;;4984645;28;20421;-86
2022/03/07 12:56:19;;;;;;;2.00;0.97;;;;;;;;;;5003735;28;20774;-86
2022/03/07 12:59:04;;;;;;;2.33;0.93;;;;;;;;;;4985282;28;20856;-85
2022/03/07 13:01:34;;;;;;;1.00;0.87;;;;;;;;;;4985885;28;20934;-85
2022/03/07 13:04:00;;;;;;;1.13;0.73;;;;;;;;;;5002729;28;20422;-84
2022/03/07 13:06:27;;;;;;;1.07;0.73;;;;;;;;;;5002946;28;21046;-84
2022/03/07 13:08:55;;;;;;;1.27;0.70;;;;;;;;;;5001334;28;20435;-84
2022/03/07 13:11:36;;;;;;;0.70;0.47;;;;;;;;;;5005081;28;20433;-85
2022/03/07 13:14:02;;;;;;;1.87;0.60;;;;;;;;;;5003726;28;20785;-86
2022/03/07 13:16:32;;;;;;;0.97;0.60;;;;;;;;;;5006325;28;20781;-86
2022/03/07 13:19:02;;;;;;;1.77;0.80;;;;;;;;;;5008563;28;20414;-82
2022/03/07 13:21:32;;;;;;;2.63;0.90;;;;;;;;;;5006284;28;20974;-86
2022/03/07 13:23:58;;;;;;;1.00;0.60;;;;;;;;;;5008547;28;20429;-86
2022/03/07 13:26:26;;;;;;;1.63;0.80;;;;;;;;;;5006834;28;20415;-86
2022/03/07 13:29:09;;;;;;;1.13;0.63;;;;;;;;;;5005405;28;20485;-83
2022/03/07 13:31:42;;;;;;;1.40;1.13;;;;;;;;;;4987210;28;20475;-84
2022/03/07 13:34:08;;;;;;;3.70;1.17;;;;;;;;;;5003372;28;20408;-84
2022/03/07 13:36:47;;;;;;;1.80;1.20;;;;;;;;;;5004311;28;20406;-83
2022/03/07 13:39:40;;;;;;;1.50;0.60;;;;;;;;;;5002710;28;20416;-84
2022/03/07 13:42:07;;;;;;;2.03;0.47;;;;;;;;;;5002397;28;20463;-84
2022/03/07 13:44:34;;;;;;;1.60;1.33;;;;;;;;;;5005083;28;20416;-85
2022/03/07 13:47:00;;;;;;;0.90;0.80;;;;;;;;;;5004524;28;20477;-85
2022/03/07 13:49:38;;;;;;;1.43;0.80;;;;;;;;;;5005445;28;20409;-85
2022/03/07 13:52:17;;;;;;;6.37;0.80;;;;;;;;;;5006395;28;20415;-84
2022/03/07 13:54:44;;;;;;;0.70;0.50;;;;;;;;;;5007097;28;20409;-85
2022/03/07 13:57:10;;;;;;;1.03;0.67;;;;;;;;;;5002424;28;21007;-84
2022/03/07 13:59:36;;;;;;;1.20;1.10;;;;;;;;;;4979098;28;20423;-84
2022/03/07 14:02:15;;;;;;;2.87;0.90;;;;;;;;;;4994974;28;20498;-83
2022/03/07 14:04:55;;;;;;;0.43;0.43;;;;;;;;;;4994329;28;20411;-84
2022/03/07 14:07:22;;;;;;;1.20;0.40;;;;;;;;;;4996126;28;20526;-81
2022/03/07 14:09:55;;;;;;;3.17;0.83;;;;;;;;;;5003825;28;20621;-85
2022/03/07 14:12:32;;;;;;;2.37;0.50;;;;;;;;;;5005220;28;20414;-86
2022/03/07 14:15:03;;;;;;;0.83;0.20;;;;;;;;;;4988205;28;20486;-82
2022/03/07 14:17:29;;;;;;;0.97;0.57;;;;;;;;;;5001388;28;20417;-85
2022/03/07 14:19:56;;;;;;;3.30;0.60;;;;;;;;;;4999758;28;20454;-86
2022/03/07 14:22:22;;;;;;;0.90;0.43;;;;;;;;;;4975863;28;20484;-84
2022/03/07 14:24:49;;;;;;;2.77;0.80;;;;;;;;;;4979028;28;20489;-86
2022/03/07 14:27:15;;;;;;;0.80;0.50;;;;;;;;;;4996067;28;20540;-86